This is the latest recevied weather packets stored in our database for station/object OM6ABF-11. If no packets are shown the sender has not sent any weather packets the latest 10 day(s).
| Time | Temp. | Humidity | Pressure | Rain* | Wind** | Luminosity | Snow |
|---|---|---|---|---|---|---|---|
| 1777573066 | 6.11° C | 36% | 1027.9 hPa | - | - | - | - |
| 1777572168 | 6.67° C | 36% | 1027.8 hPa | - | - | - | - |
| 1777571269 | 7.78° C | 33% | 1027.6 hPa | - | - | - | - |
| 1777570370 | 8.89° C | 31% | 1027.5 hPa | - | - | - | - |
| 1777569472 | 10° C | 29% | 1027.4 hPa | - | - | - | - |
| 1777567675 | 11.11° C | 27% | 1027.2 hPa | - | - | - | - |
| 1777566776 | 11.11° C | 27% | 1027 hPa | - | - | - | - |
| 1777565876 | 11.67° C | 27% | 1026.9 hPa | - | - | - | - |
| 1777564976 | 11.67° C | 27% | 1026.8 hPa | - | - | - | - |
| 1777564076 | 12.22° C | 25% | 1027 hPa | - | - | - | - |
| 1777563176 | 12.22° C | 24% | 1026.8 hPa | - | - | - | - |
| 1777562277 | 12.22° C | 24% | 1026.9 hPa | - | - | - | - |
| 1777561376 | 12.22° C | 22% | 1026.9 hPa | - | - | - | - |
| 1777560479 | 13.33° C | 21% | 1027 hPa | - | - | - | - |
| 1777559581 | 13.33° C | 22% | 1027 hPa | - | - | - | - |
| 1777558681 | 13.33° C | 22% | 1026.9 hPa | - | - | - | - |
| 1777557782 | 13.89° C | 24% | 1027 hPa | - | - | - | - |
| 1777556883 | 13.89° C | 23% | 1027.1 hPa | - | - | - | - |
| 1777555985 | 16.11° C | 20% | 1027.2 hPa | - | - | - | - |
| 1777555085 | 13.89° C | 21% | 1027.5 hPa | - | - | - | - |
| 1777554185 | 13.89° C | 23% | 1027.6 hPa | - | - | - | - |
| 1777553285 | 12.78° C | 25% | 1027.9 hPa | - | - | - | - |
| 1777552386 | 14.44° C | 22% | 1027.9 hPa | - | - | - | - |
| 1777551486 | 12.78° C | 23% | 1028.2 hPa | - | - | - | - |
| 1777550587 | 13.89° C | 24% | 1028.3 hPa | - | - | - | - |
* Rain since midnight (hover to see other rain measurements)
** Current wind speed in m/s (hover to see current wind gust speed)